Time;durP1;ratioP1;P1;durP2;ratioP2;P2;SDS_P1;SDS_P2;PMS_P1;PMS_P2;Temp;Humidity;BMP_temperature;BMP_pressure;BME280_temperature;BME280_humidity;BME280_pressure;Samples;Min_cycle;Max_cycle;Signal;HPM_P1;HPM_P2
2021/12/28 00:01:25;;;;;;;6.53;1.00;;;22.50;92.70;;;;;;4974593;28;20046;-75
2021/12/28 00:03:54;;;;;;;5.05;0.70;;;22.60;92.90;;;;;;4974274;28;20542;-73
2021/12/28 00:06:22;;;;;;;4.28;0.50;;;22.60;92.10;;;;;;4973673;28;20082;-72
2021/12/28 00:08:49;;;;;;;7.28;1.20;;;22.70;92.60;;;;;;4974879;28;20037;-73
2021/12/28 00:11:17;;;;;;;8.50;0.90;;;22.80;92.50;;;;;;4973460;28;20023;-73
2021/12/28 00:13:45;;;;;;;5.22;1.00;;;22.80;92.20;;;;;;4973109;28;20085;-74
2021/12/28 00:18:41;;;;;;;6.32;1.52;;;22.80;93.00;;;;;;4974563;28;20027;-74
2021/12/28 00:21:08;;;;;;;7.22;1.15;;;22.70;93.70;;;;;;4974567;28;20015;-73
2021/12/28 00:23:40;;;;;;;8.07;1.30;;;22.60;93.90;;;;;;4974593;28;20126;-74
2021/12/28 00:26:13;;;;;;;8.05;0.85;;;22.50;94.50;;;;;;4973800;28;20042;-73
2021/12/28 00:28:42;;;;;;;4.03;1.00;;;22.40;94.40;;;;;;4973937;28;20081;-75
2021/12/28 00:31:11;;;;;;;5.82;1.00;;;22.60;94.30;;;;;;4974347;28;20030;-74
2021/12/28 00:33:38;;;;;;;7.63;0.98;;;22.80;94.90;;;;;;4972685;28;20030;-73
2021/12/28 00:36:06;;;;;;;7.32;0.90;;;23.00;94.70;;;;;;4971806;28;20030;-74
2021/12/28 00:38:34;;;;;;;3.75;0.77;;;23.00;93.80;;;;;;4972879;28;20371;-74
2021/12/28 00:41:03;;;;;;;3.92;0.88;;;23.10;93.20;;;;;;4973424;28;20459;-70
2021/12/28 00:43:32;;;;;;;6.47;1.85;;;23.10;94.50;;;;;;4973419;28;20023;-71
2021/12/28 00:46:00;;;;;;;6.13;1.30;;;23.20;96.30;;;;;;4973331;28;20566;-74
2021/12/28 00:48:27;;;;;;;7.10;0.73;;;23.10;95.40;;;;;;4973878;28;20069;-75
2021/12/28 00:50:55;;;;;;;5.93;1.15;;;22.90;94.90;;;;;;4973182;28;20022;-74
2021/12/28 00:53:22;;;;;;;10.27;1.45;;;22.60;95.50;;;;;;4973521;28;20031;-76
2021/12/28 00:55:50;;;;;;;5.03;0.88;;;22.60;96.20;;;;;;4973896;28;20046;-72
2021/12/28 00:58:18;;;;;;;7.35;1.23;;;22.40;99.00;;;;;;4973646;28;20395;-73
2021/12/28 01:00:46;;;;;;;6.53;1.20;;;22.20;99.90;;;;;;4973476;28;20030;-73
2021/12/28 01:03:14;;;;;;;11.20;2.00;;;21.90;99.90;;;;;;4973432;28;20030;-74
2021/12/28 01:05:42;;;;;;;6.85;1.33;;;21.80;99.90;;;;;;4974031;28;20023;-73
2021/12/28 01:08:10;;;;;;;8.55;1.55;;;21.60;99.90;;;;;;4973607;28;20517;-73
2021/12/28 01:10:45;;;;;;;11.25;1.80;;;21.40;99.90;;;;;;4973404;28;20072;-73
2021/12/28 01:13:13;;;;;;;8.85;1.33;;;21.20;99.90;;;;;;4973225;28;20027;-70
2021/12/28 01:15:41;;;;;;;5.80;1.10;;;21.10;99.90;;;;;;4973189;28;20510;-73
2021/12/28 01:18:09;;;;;;;6.40;1.20;;;20.90;99.90;;;;;;4973466;28;20528;-73
2021/12/28 01:20:37;;;;;;;6.00;1.45;;;20.60;99.90;;;;;;4973012;28;20034;-71
2021/12/28 01:23:05;;;;;;;10.45;1.90;;;20.40;99.90;;;;;;4973271;28;20035;-74
2021/12/28 01:25:34;;;;;;;6.88;1.25;;;20.00;99.90;;;;;;4973212;28;20047;-74
2021/12/28 01:28:02;;;;;;;11.48;1.65;;;19.80;99.90;;;;;;4974303;28;20441;-72
2021/12/28 01:30:30;;;;;;;11.60;1.75;;;19.90;99.90;;;;;;4973844;28;20034;-75
2021/12/28 01:33:00;;;;;;;8.27;1.88;;;19.90;99.90;;;;;;4973404;28;20409;-74
2021/12/28 01:35:29;;;;;;;6.43;1.13;;;20.00;99.90;;;;;;4973995;28;20030;-73
2021/12/28 01:37:57;;;;;;;7.82;1.10;;;20.00;99.90;;;;;;4973523;28;20114;-73
2021/12/28 01:40:28;;;;;;;6.47;1.52;;;20.00;99.90;;;;;;4970760;28;20031;-74
2021/12/28 01:43:04;;;;;;;6.57;1.83;;;20.00;99.90;;;;;;4973121;28;20027;-75
2021/12/28 01:45:44;;;;;;;8.30;1.95;;;19.90;99.90;;;;;;4973184;28;20026;-75
2021/12/28 01:48:19;;;;;;;7.13;1.40;;;19.90;99.90;;;;;;4971755;28;20034;-70
2021/12/28 01:50:48;;;;;;;8.98;0.93;;;19.90;99.90;;;;;;4971942;28;20522;-69
2021/12/28 01:53:16;;;;;;;6.00;1.20;;;20.00;99.90;;;;;;4972569;28;20027;-70
2021/12/28 01:55:46;;;;;;;7.38;1.35;;;20.10;99.90;;;;;;4972283;28;20430;-71
2021/12/28 01:58:14;;;;;;;7.45;1.77;;;20.10;99.90;;;;;;4972456;28;20502;-69
2021/12/28 02:00:44;;;;;;;12.30;2.60;;;20.10;99.90;;;;;;4972480;28;20082;-69
2021/12/28 02:03:15;;;;;;;13.40;1.30;;;20.30;99.90;;;;;;4972158;28;20027;-70
2021/12/28 02:05:43;;;;;;;9.00;3.10;;;20.40;99.90;;;;;;4972309;28;20114;-72
2021/12/28 02:08:12;;;;;;;9.05;1.15;;;20.70;99.90;;;;;;4971807;28;20066;-71
2021/12/28 02:10:41;;;;;;;9.73;1.42;;;20.90;99.90;;;;;;4972148;28;20046;-72
2021/12/28 02:13:09;;;;;;;10.30;1.30;;;21.00;99.90;;;;;;4971832;28;20391;-74
2021/12/28 02:15:37;;;;;;;9.57;1.35;;;20.90;99.90;;;;;;4972154;28;20027;-72
2021/12/28 02:18:09;;;;;;;7.72;1.27;;;20.70;99.90;;;;;;4971000;28;20025;-72
2021/12/28 02:20:37;;;;;;;;;;;20.40;99.90;;;;;;4972595;28;20081;-71
2021/12/28 02:23:04;;;;;;;7.38;1.60;;;20.40;99.90;;;;;;4972107;28;19910;-70
2021/12/28 02:25:32;;;;;;;6.22;1.02;;;20.10;99.90;;;;;;4972431;28;20057;-72
2021/12/28 02:28:00;;;;;;;7.72;1.48;;;20.00;99.90;;;;;;4956471;28;20082;-72
2021/12/28 02:30:28;;;;;;;10.90;2.00;;;20.00;99.90;;;;;;4974570;28;20058;-70
2021/12/28 02:32:55;;;;;;;5.32;1.20;;;20.00;99.90;;;;;;4976059;28;20110;-74
2021/12/28 02:35:25;;;;;;;8.25;1.35;;;20.00;99.90;;;;;;4976153;28;20031;-74
2021/12/28 02:37:53;;;;;;;12.05;1.75;;;20.00;99.90;;;;;;4975945;28;20026;-69
2021/12/28 02:40:27;;;;;;;7.32;1.17;;;20.30;99.90;;;;;;4976143;28;20035;-72
2021/12/28 02:42:56;;;;;;;6.55;1.23;;;20.90;99.90;;;;;;4976549;28;20494;-71
2021/12/28 02:45:30;;;;;;;6.80;1.10;;;21.40;99.90;;;;;;4976245;28;20023;-71
2021/12/28 02:47:58;;;;;;;6.70;1.00;;;22.00;99.90;;;;;;4975877;28;20475;-71
2021/12/28 02:50:36;;;;;;;7.95;1.25;;;22.60;99.90;;;;;;4974337;28;20459;-72
2021/12/28 02:53:03;;;;;;;6.55;1.25;;;23.00;99.90;;;;;;4975967;28;20023;-72
2021/12/28 02:55:33;;;;;;;9.27;1.48;;;23.40;99.90;;;;;;4976344;28;20054;-75
2021/12/28 02:58:04;;;;;;;5.40;0.85;;;23.70;99.80;;;;;;4976026;28;20042;-73
2021/12/28 03:00:48;;;;;;;8.00;1.08;;;23.90;98.80;;;;;;4976323;28;20038;-72
2021/12/28 03:03:21;;;;;;;6.90;1.08;;;24.10;98.50;;;;;;4974862;28;20029;-71
2021/12/28 03:05:51;;;;;;;6.85;1.13;;;24.30;97.50;;;;;;4976324;28;20106;-72
2021/12/28 03:08:21;;;;;;;4.07;0.70;;;24.30;97.50;;;;;;4975951;28;20506;-72
2021/12/28 03:10:49;;;;;;;4.65;0.95;;;24.20;97.60;;;;;;4975860;28;20026;-72
2021/12/28 03:13:23;;;;;;;4.47;0.75;;;23.90;99.90;;;;;;4976437;28;20023;-71
2021/12/28 03:15:52;;;;;;;6.10;0.82;;;23.40;99.60;;;;;;4976577;28;20031;-71
2021/12/28 03:18:20;;;;;;;4.85;1.10;;;23.00;99.40;;;;;;4959273;28;20022;-71
2021/12/28 03:20:47;;;;;;;5.10;0.80;;;22.70;99.90;;;;;;4975466;28;20427;-72
2021/12/28 03:23:18;;;;;;;4.13;0.73;;;22.80;99.40;;;;;;4974943;28;20491;-71
2021/12/28 03:25:47;;;;;;;3.35;0.80;;;22.80;98.80;;;;;;4975238;28;20460;-70
2021/12/28 03:28:23;;;;;;;7.60;0.90;;;22.70;97.80;;;;;;4975135;28;20491;-72
2021/12/28 03:30:56;;;;;;;5.43;1.00;;;22.60;98.60;;;;;;4974309;28;20046;-70
2021/12/28 03:33:26;;;;;;;7.55;1.48;;;22.60;98.70;;;;;;4958625;28;20027;-73
2021/12/28 03:35:54;;;;;;;8.20;2.03;;;22.60;98.40;;;;;;4975508;28;20065;-70
2021/12/28 03:38:21;;;;;;;7.38;1.25;;;22.60;98.80;;;;;;4975175;28;20026;-72
2021/12/28 03:40:49;;;;;;;6.47;1.25;;;22.60;99.10;;;;;;4974200;28;20027;-71
2021/12/28 03:43:17;;;;;;;5.45;0.60;;;22.80;99.80;;;;;;4974916;28;20045;-71
2021/12/28 03:45:44;;;;;;;6.90;1.38;;;22.90;99.00;;;;;;4974858;28;20069;-71
2021/12/28 03:48:12;;;;;;;5.00;1.15;;;23.10;98.10;;;;;;4974575;28;20038;-72
2021/12/28 03:50:39;;;;;;;4.95;0.93;;;23.10;97.90;;;;;;4974669;28;20543;-73
2021/12/28 03:53:08;;;;;;;4.43;1.25;;;23.20;97.70;;;;;;4974758;28;20023;-70
2021/12/28 03:55:36;;;;;;;6.88;0.95;;;23.50;97.70;;;;;;4975003;28;20050;-72
2021/12/28 03:58:05;;;;;;;3.72;0.80;;;24.30;97.00;;;;;;4977235;28;20046;-71
2021/12/28 04:00:37;;;;;;;6.00;0.93;;;25.00;94.90;;;;;;4974790;28;20040;-71
2021/12/28 04:03:06;;;;;;;7.60;0.93;;;25.70;93.40;;;;;;4973722;28;20015;-72
2021/12/28 04:05:33;;;;;;;3.90;0.63;;;26.50;91.60;;;;;;4974652;28;20117;-72
2021/12/28 04:08:01;;;;;;;4.88;0.80;;;27.30;90.80;;;;;;4974483;28;20438;-70
2021/12/28 04:10:31;;;;;;;5.75;1.50;;;27.60;88.30;;;;;;4972491;28;20081;-70
2021/12/28 04:13:00;;;;;;;5.38;0.80;;;27.90;87.70;;;;;;4974235;28;20029;-70
2021/12/28 04:15:27;;;;;;;6.35;0.80;;;28.00;89.80;;;;;;4974650;28;20113;-70
2021/12/28 04:17:55;;;;;;;7.97;1.00;;;27.90;87.80;;;;;;4974137;28;20027;-71
2021/12/28 04:20:23;;;;;;;4.95;1.02;;;27.40;87.90;;;;;;4974227;28;20023;-71
2021/12/28 04:22:51;;;;;;;5.63;0.80;;;27.00;91.10;;;;;;4973809;28;20027;-72
2021/12/28 04:25:19;;;;;;;9.25;1.10;;;26.40;92.30;;;;;;4973792;28;20059;-71
2021/12/28 04:27:46;;;;;;;3.55;0.68;;;25.60;94.40;;;;;;4973264;28;20093;-72
2021/12/28 04:30:15;;;;;;;4.60;0.90;;;24.90;96.40;;;;;;4973563;28;20027;-71
2021/12/28 04:32:44;;;;;;;6.88;1.85;;;24.10;97.40;;;;;;4974231;28;20029;-71
2021/12/28 04:35:12;;;;;;;6.88;1.17;;;23.40;99.30;;;;;;4973847;28;20054;-71
2021/12/28 04:37:40;;;;;;;7.63;1.75;;;23.00;99.60;;;;;;4973639;28;20031;-71
2021/12/28 04:40:09;;;;;;;5.70;1.83;;;22.70;99.90;;;;;;4973422;28;20023;-72
2021/12/28 04:42:38;;;;;;;6.43;1.30;;;22.50;99.90;;;;;;4973434;28;20118;-69
2021/12/28 04:45:07;;;;;;;7.53;1.50;;;22.30;99.90;;;;;;4974021;28;20015;-70
2021/12/28 04:47:35;;;;;;;8.27;1.10;;;22.20;99.90;;;;;;4973567;28;20109;-70
2021/12/28 04:50:04;;;;;;;7.28;0.85;;;22.00;99.90;;;;;;4973308;28;20023;-70
2021/12/28 04:52:35;;;;;;;8.02;0.90;;;22.00;99.90;;;;;;4973053;28;20034;-71
2021/12/28 04:55:06;;;;;;;5.80;1.65;;;21.90;99.90;;;;;;4973812;28;20031;-71
2021/12/28 04:57:33;;;;;;;5.03;1.10;;;21.90;99.90;;;;;;4973969;28;20045;-71
2021/12/28 05:00:00;;;;;;;7.00;1.02;;;22.00;99.90;;;;;;4973231;28;20035;-69
2021/12/28 05:02:28;;;;;;;6.53;1.38;;;22.10;99.90;;;;;;4972122;28;20440;-72
2021/12/28 05:04:55;;;;;;;12.18;2.45;;;22.60;99.90;;;;;;4972827;28;20037;-70
2021/12/28 05:07:22;;;;;;;8.68;1.58;;;23.50;99.90;;;;;;4973017;28;20038;-72
2021/12/28 05:09:50;;;;;;;11.73;1.50;;;24.70;97.20;;;;;;4971642;28;20027;-72
2021/12/28 05:12:24;;;;;;;6.03;0.90;;;25.90;93.70;;;;;;4972752;28;20654;-75
2021/12/28 05:14:51;;;;;;;4.97;0.88;;;26.90;91.30;;;;;;4973287;28;20061;-74
2021/12/28 05:17:19;;;;;;;8.52;1.70;;;27.70;90.10;;;;;;4981143;28;20030;-72
2021/12/28 05:19:46;;;;;;;6.20;1.17;;;28.50;86.60;;;;;;4973224;28;20107;-71
2021/12/28 05:22:13;;;;;;;5.95;0.70;;;28.60;83.80;;;;;;4972910;28;20041;-73
2021/12/28 05:24:41;;;;;;;5.85;0.88;;;28.40;81.70;;;;;;4972133;28;20518;-71
2021/12/28 05:27:08;;;;;;;8.05;1.05;;;28.10;82.00;;;;;;4973567;28;20487;-71
2021/12/28 05:29:36;;;;;;;5.28;0.93;;;27.50;82.40;;;;;;4973311;28;20146;-74
2021/12/28 05:32:04;;;;;;;6.93;1.10;;;26.70;83.60;;;;;;4973114;28;20153;-74
2021/12/28 05:34:31;;;;;;;9.57;1.83;;;26.50;83.10;;;;;;4972899;28;20025;-73
2021/12/28 05:36:58;;;;;;;9.38;0.93;;;26.40;84.70;;;;;;4972863;28;20039;-74
2021/12/28 05:39:26;;;;;;;6.22;1.00;;;26.50;83.30;;;;;;4972786;28;20150;-74
2021/12/28 05:41:53;;;;;;;7.45;0.82;;;26.70;81.80;;;;;;4972583;28;20054;-70
2021/12/28 05:44:20;;;;;;;8.77;1.40;;;26.70;82.20;;;;;;4972675;28;20527;-75
2021/12/28 05:46:49;;;;;;;6.10;1.38;;;26.40;82.60;;;;;;4972755;28;20031;-74
2021/12/28 05:49:17;;;;;;;7.40;0.88;;;26.00;83.00;;;;;;4972657;28;20019;-73
2021/12/28 05:51:45;;;;;;;4.45;0.80;;;26.10;82.20;;;;;;4971945;28;20046;-74
2021/12/28 05:54:12;;;;;;;5.18;0.95;;;26.30;81.90;;;;;;4973059;28;20030;-75
2021/12/28 05:56:41;;;;;;;5.88;0.95;;;26.30;80.70;;;;;;4972987;28;20030;-75
2021/12/28 05:59:09;;;;;;;7.35;0.85;;;26.50;82.00;;;;;;4972763;28;20035;-74
2021/12/28 06:01:36;;;;;;;6.97;0.80;;;26.50;80.90;;;;;;4971251;28;20033;-74
2021/12/28 06:04:04;;;;;;;6.28;0.82;;;26.30;81.80;;;;;;4971765;28;20081;-77
2021/12/28 06:06:32;;;;;;;4.97;0.80;;;26.00;82.10;;;;;;4973063;28;20065;-77
2021/12/28 06:09:00;;;;;;;6.55;0.88;;;25.60;82.80;;;;;;4972840;28;20027;-72
2021/12/28 06:11:27;;;;;;;9.05;1.75;;;25.20;82.90;;;;;;4972657;28;20062;-72
2021/12/28 06:13:54;;;;;;;4.75;0.63;;;24.90;84.00;;;;;;4972638;28;20015;-73
2021/12/28 06:16:22;;;;;;;6.80;0.85;;;24.80;85.30;;;;;;4968825;28;20028;-74
2021/12/28 06:18:49;;;;;;;6.78;1.40;;;24.80;85.60;;;;;;4966337;28;20022;-72
2021/12/28 06:21:17;;;;;;;5.65;0.95;;;24.70;85.20;;;;;;4961574;28;20031;-72
2021/12/28 06:23:44;;;;;;;10.57;1.23;;;24.30;86.70;;;;;;4962729;28;20143;-75
2021/12/28 06:26:11;;;;;;;7.38;1.23;;;24.10;88.10;;;;;;4972461;28;20452;-71
2021/12/28 06:28:39;;;;;;;9.45;2.08;;;24.20;90.30;;;;;;4972505;28;20030;-73
2021/12/28 06:31:06;;;;;;;8.43;1.13;;;24.30;91.60;;;;;;4972864;28;20093;-74
2021/12/28 06:33:33;;;;;;;4.50;0.98;;;24.20;92.40;;;;;;4972902;28;20042;-71
2021/12/28 06:36:01;;;;;;;5.93;0.75;;;23.90;93.90;;;;;;4972984;28;20015;-73
2021/12/28 06:38:28;;;;;;;7.13;1.00;;;23.70;97.00;;;;;;4972450;28;20027;-72
2021/12/28 06:40:56;;;;;;;6.80;0.93;;;23.40;96.60;;;;;;4972260;28;20032;-76
2021/12/28 06:43:23;;;;;;;8.80;1.13;;;23.00;97.00;;;;;;4972626;28;20472;-76
2021/12/28 06:45:51;;;;;;;6.43;0.80;;;22.50;98.00;;;;;;4968234;28;20035;-73
2021/12/28 06:48:19;;;;;;;6.68;0.77;;;22.10;97.90;;;;;;4971961;28;20053;-75
2021/12/28 06:50:46;;;;;;;8.25;1.33;;;21.90;98.70;;;;;;4971520;28;20047;-74
2021/12/28 06:53:15;;;;;;;8.25;1.67;;;21.60;98.90;;;;;;4973517;28;20081;-77
2021/12/28 06:55:46;;;;;;;9.75;1.58;;;21.50;99.90;;;;;;4972634;28;20023;-74
2021/12/28 06:58:15;;;;;;;13.95;1.70;;;21.40;99.80;;;;;;4972798;28;20043;-75
2021/12/28 07:00:43;;;;;;;8.68;1.30;;;21.30;98.60;;;;;;4972493;28;20483;-76
2021/12/28 07:03:10;;;;;;;6.80;1.48;;;21.10;99.00;;;;;;4970901;28;20031;-74
2021/12/28 07:05:38;;;;;;;10.10;1.38;;;21.20;99.00;;;;;;4972784;28;20023;-79
2021/12/28 07:08:05;;;;;;;8.57;1.30;;;21.20;98.70;;;;;;4972488;28;20038;-75
2021/12/28 07:10:33;;;;;;;12.65;2.88;;;21.20;98.20;;;;;;4973137;28;20019;-79
2021/12/28 07:13:04;;;;;;;10.90;1.25;;;21.20;98.10;;;;;;4972914;28;20027;-76
2021/12/28 07:15:34;;;;;;;9.52;2.10;;;21.20;97.60;;;;;;4972576;28;20396;-76
2021/12/28 07:18:02;;;;;;;6.75;1.27;;;21.20;97.90;;;;;;4975285;28;20033;-76
2021/12/28 07:20:29;;;;;;;5.65;1.40;;;21.20;97.30;;;;;;4974755;28;20443;-75
2021/12/28 07:22:59;;;;;;;4.00;0.70;;;21.20;97.00;;;;;;4975956;28;20034;-76
2021/12/28 07:25:27;;;;;;;6.88;1.02;;;21.20;97.10;;;;;;4974913;28;20514;-75
2021/12/28 07:27:57;;;;;;;5.30;1.52;;;21.10;97.30;;;;;;4974628;28;20077;-77
2021/12/28 07:30:24;;;;;;;6.45;1.67;;;21.10;97.20;;;;;;4972298;28;20054;-76
2021/12/28 07:32:57;;;;;;;8.40;1.40;;;21.00;97.10;;;;;;4975947;28;20077;-78
2021/12/28 07:35:25;;;;;;;3.78;0.77;;;20.90;97.10;;;;;;4974438;28;20030;-76
2021/12/28 07:37:53;;;;;;;6.45;1.08;;;20.90;97.30;;;;;;4975155;28;20427;-76
2021/12/28 07:40:21;;;;;;;4.82;1.00;;;20.90;96.70;;;;;;4969720;28;20542;-76
2021/12/28 07:42:49;;;;;;;6.63;0.95;;;21.00;97.00;;;;;;4954611;28;20035;-77
2021/12/28 07:45:17;;;;;;;5.82;1.02;;;21.00;96.40;;;;;;4963711;28;20035;-74
2021/12/28 07:47:45;;;;;;;6.07;1.35;;;20.90;96.30;;;;;;4955757;28;20039;-75
2021/12/28 07:50:15;;;;;;;5.35;1.27;;;20.80;96.60;;;;;;4954351;28;20027;-76
2021/12/28 07:52:43;;;;;;;6.35;1.15;;;20.90;97.00;;;;;;4956515;28;20074;-75
2021/12/28 07:55:12;;;;;;;8.77;1.23;;;20.80;96.80;;;;;;4955585;28;20023;-76
2021/12/28 07:57:40;;;;;;;8.35;0.85;;;20.90;96.90;;;;;;4955823;28;20069;-76
2021/12/28 08:00:13;;;;;;;8.85;1.13;;;20.90;96.70;;;;;;4955449;28;20019;-76
2021/12/28 08:02:43;;;;;;;8.07;1.52;;;20.90;96.80;;;;;;4956040;28;20024;-77
2021/12/28 08:05:15;;;;;;;6.72;1.20;;;20.80;96.70;;;;;;4972765;28;20042;-75
2021/12/28 08:07:43;;;;;;;7.57;1.70;;;20.90;96.60;;;;;;4973459;28;20031;-76
2021/12/28 08:10:12;;;;;;;10.80;1.60;;;20.80;96.40;;;;;;4970058;28;20767;-75
2021/12/28 08:12:40;;;;;;;7.22;1.45;;;20.80;96.60;;;;;;4976188;28;20089;-76
2021/12/28 08:15:08;;;;;;;12.00;1.52;;;20.80;96.70;;;;;;5005584;28;20058;-77
2021/12/28 08:17:36;;;;;;;11.98;2.10;;;20.80;96.40;;;;;;4956180;28;20687;-76
2021/12/28 08:20:09;;;;;;;6.93;1.00;;;20.80;96.60;;;;;;4955250;28;20436;-76
2021/12/28 08:22:36;;;;;;;;;;;20.80;96.70;;;;;;4956437;28;20547;-76
2021/12/28 08:25:05;;;;;;;5.15;1.20;;;20.70;96.90;;;;;;4957976;28;19977;-77
2021/12/28 08:27:32;;;;;;;10.15;1.10;;;20.70;96.90;;;;;;4955710;28;20035;-77
2021/12/28 08:30:00;;;;;;;9.82;1.40;;;20.60;96.60;;;;;;4955397;28;20023;-75
2021/12/28 08:32:27;;;;;;;5.88;1.33;;;20.60;96.60;;;;;;4954485;28;20027;-71
2021/12/28 08:34:55;;;;;;;8.23;0.95;;;20.40;96.90;;;;;;4954693;28;20020;-74
2021/12/28 08:37:22;;;;;;;6.57;1.55;;;20.40;97.20;;;;;;4954913;28;20472;-74
2021/12/28 08:39:50;;;;;;;6.93;1.20;;;20.30;97.50;;;;;;4954690;28;20488;-73
2021/12/28 08:42:17;;;;;;;9.90;1.45;;;20.20;97.90;;;;;;4955159;28;20063;-77
2021/12/28 08:44:45;;;;;;;8.43;1.23;;;20.10;98.00;;;;;;4955055;28;20378;-74
2021/12/28 08:47:12;;;;;;;5.50;1.00;;;20.10;97.90;;;;;;4971286;28;20043;-74
2021/12/28 08:49:39;;;;;;;8.30;1.27;;;20.00;98.20;;;;;;4973622;28;20023;-75
2021/12/28 08:52:07;;;;;;;7.28;0.85;;;19.90;98.70;;;;;;4974115;28;20471;-73
2021/12/28 08:54:35;;;;;;;10.73;1.25;;;19.80;98.50;;;;;;4973629;28;20494;-73
2021/12/28 08:57:03;;;;;;;8.07;1.83;;;19.70;98.70;;;;;;4973982;28;20050;-75
2021/12/28 08:59:33;;;;;;;8.13;1.02;;;19.70;99.00;;;;;;4973579;28;20026;-74
2021/12/28 09:02:07;;;;;;;7.05;0.90;;;19.60;99.10;;;;;;4973401;28;20037;-74
2021/12/28 09:04:36;;;;;;;9.27;1.60;;;19.60;99.20;;;;;;5004599;28;20023;-73
2021/12/28 09:07:07;;;;;;;8.23;1.10;;;19.60;98.90;;;;;;4971673;28;20403;-73
2021/12/28 09:09:38;;;;;;;5.97;1.50;;;19.50;98.90;;;;;;4973662;28;20064;-74
2021/12/28 09:12:10;;;;;;;6.47;0.90;;;19.50;98.90;;;;;;4973886;28;20451;-73
2021/12/28 09:14:41;;;;;;;5.13;1.00;;;19.50;98.90;;;;;;4973474;28;20029;-73
2021/12/28 09:17:09;;;;;;;8.45;1.52;;;19.40;98.80;;;;;;4972179;28;20030;-74
2021/12/28 09:19:37;;;;;;;8.65;1.60;;;19.40;98.80;;;;;;4972896;28;20019;-73
2021/12/28 09:22:05;;;;;;;7.50;1.88;;;19.40;99.20;;;;;;4973478;28;20031;-74
2021/12/28 09:24:32;;;;;;;9.80;1.60;;;19.30;99.60;;;;;;4973155;28;20157;-74
2021/12/28 09:27:00;;;;;;;6.53;1.25;;;19.30;99.60;;;;;;4971979;28;20144;-73
2021/12/28 09:29:29;;;;;;;6.07;1.60;;;19.30;99.90;;;;;;4969635;28;20058;-73
2021/12/28 09:32:01;;;;;;;7.55;1.20;;;19.20;99.90;;;;;;4961153;28;20097;-74
2021/12/28 09:34:32;;;;;;;8.02;1.98;;;19.20;99.90;;;;;;4964667;28;20404;-74
2021/12/28 09:37:00;;;;;;;7.38;1.17;;;19.10;99.90;;;;;;4954646;28;20031;-74
2021/12/28 09:39:28;;;;;;;9.38;1.15;;;19.00;99.90;;;;;;4961475;28;20101;-73
2021/12/28 09:42:01;;;;;;;8.60;1.35;;;18.90;99.90;;;;;;4971383;28;20065;-74
2021/12/28 09:44:29;;;;;;;;;;;18.90;99.90;;;;;;4972710;28;20054;-75
2021/12/28 09:47:01;;;;;;;8.68;1.42;;;18.90;99.90;;;;;;4974436;28;19933;-73
2021/12/28 09:49:33;;;;;;;5.95;1.52;;;18.90;99.90;;;;;;4982183;28;20030;-71
2021/12/28 09:52:05;;;;;;;10.38;1.10;;;18.90;99.90;;;;;;4993428;28;20490;-73
2021/12/28 09:54:33;;;;;;;4.38;0.98;;;19.00;99.90;;;;;;4992125;28;20034;-72
2021/12/28 09:57:01;;;;;;;11.57;1.30;;;19.10;99.90;;;;;;4993151;28;20041;-78
2021/12/28 09:59:30;;;;;;;7.40;1.00;;;19.20;99.90;;;;;;4992066;28;20110;-75
2021/12/28 10:01:59;;;;;;;7.22;1.05;;;19.20;99.90;;;;;;4992962;28;20105;-74
2021/12/28 10:04:28;;;;;;;10.77;1.67;;;19.30;99.90;;;;;;4969406;28;20085;-74
2021/12/28 10:07:19;;;;;;;9.70;1.85;;;19.30;99.90;;;;;;4972283;28;20484;-74
2021/12/28 10:09:48;;;;;;;5.65;1.17;;;19.40;99.90;;;;;;4965986;28;20027;-74
2021/12/28 10:12:30;;;;;;;6.68;0.90;;;19.40;99.40;;;;;;4971497;28;20085;-76
2021/12/28 10:15:00;;;;;;;8.77;1.58;;;19.50;99.30;;;;;;4972196;28;20038;-75
2021/12/28 10:17:30;;;;;;;4.10;1.13;;;19.50;99.40;;;;;;4972053;28;20472;-75
2021/12/28 10:19:59;;;;;;;9.18;1.50;;;19.40;99.20;;;;;;4972340;28;20034;-75
2021/12/28 10:22:58;;;;;;;5.65;1.00;;;19.40;99.30;;;;;;4971945;28;20062;-75
2021/12/28 10:25:35;;;;;;;9.32;1.05;;;19.50;99.10;;;;;;4972738;28;20047;-74
2021/12/28 10:28:13;;;;;;;6.32;1.02;;;19.50;98.30;;;;;;4972573;28;20035;-74
2021/12/28 10:30:51;;;;;;;6.57;1.25;;;19.50;98.20;;;;;;4972578;28;20109;-75
2021/12/28 10:33:22;;;;;;;6.78;1.08;;;19.50;97.90;;;;;;4971793;28;20026;-74
2021/12/28 10:36:00;;;;;;;7.45;1.75;;;19.50;97.80;;;;;;4971758;28;20456;-75
2021/12/28 10:38:35;;;;;;;11.95;1.90;;;19.50;98.00;;;;;;4970539;28;20023;-75
2021/12/28 10:41:16;;;;;;;8.07;1.13;;;19.50;98.00;;;;;;4972305;28;20037;-75
2021/12/28 10:43:46;;;;;;;5.05;0.90;;;19.50;98.10;;;;;;4972104;28;20095;-75
2021/12/28 10:46:19;;;;;;;7.95;1.00;;;19.40;98.00;;;;;;4971919;28;20498;-75
2021/12/28 10:48:54;;;;;;;5.97;0.93;;;19.40;98.00;;;;;;4971515;28;20035;-74
2021/12/28 10:51:42;;;;;;;9.05;1.10;;;19.40;97.50;;;;;;4973572;28;20022;-75
2021/12/28 10:56:51;;;;;;;5.07;1.10;;;19.40;97.50;;;;;;4973758;28;20027;-76
2021/12/28 10:59:24;;;;;;;7.25;1.25;;;19.40;97.50;;;;;;4974625;28;20038;-75
2021/12/28 11:01:56;;;;;;;6.25;0.80;;;19.30;97.70;;;;;;4975775;28;20155;-75
2021/12/28 11:04:33;;;;;;;6.97;1.70;;;19.30;97.90;;;;;;4975484;28;20043;-75
2021/12/28 11:07:08;;;;;;;9.98;2.13;;;19.30;98.10;;;;;;4958634;28;20035;-75
2021/12/28 11:09:45;;;;;;;4.28;0.80;;;19.30;97.90;;;;;;4974542;28;20042;-75
2021/12/28 11:12:13;;;;;;;10.98;1.00;;;19.30;97.80;;;;;;4974541;28;20037;-75
2021/12/28 11:14:41;;;;;;;4.00;0.85;;;19.30;97.70;;;;;;4975645;28;20023;-75
2021/12/28 11:17:09;;;;;;;8.55;0.90;;;19.20;97.80;;;;;;4963923;28;20035;-75
2021/12/28 11:19:41;;;;;;;6.18;0.80;;;19.20;97.80;;;;;;4968111;28;21301;-76
2021/12/28 11:22:14;;;;;;;8.18;1.15;;;19.20;97.70;;;;;;4968404;28;20034;-76
2021/12/28 11:24:47;;;;;;;5.15;0.85;;;19.10;97.90;;;;;;4969317;28;20237;-75
2021/12/28 11:27:30;;;;;;;6.25;1.27;;;19.20;98.20;;;;;;4969854;28;20039;-76
2021/12/28 11:29:59;;;;;;;5.75;1.20;;;19.10;98.10;;;;;;4969857;28;20042;-76
2021/12/28 11:32:27;;;;;;;5.78;1.52;;;19.10;98.20;;;;;;4970394;28;20027;-76
2021/12/28 11:34:55;;;;;;;9.93;1.20;;;19.00;98.10;;;;;;4969789;28;20026;-76
2021/12/28 11:37:26;;;;;;;8.73;1.20;;;19.00;98.40;;;;;;4970376;28;20059;-76
2021/12/28 11:40:00;;;;;;;6.13;1.25;;;19.00;98.40;;;;;;4969672;28;20119;-76
2021/12/28 11:42:29;;;;;;;5.65;1.30;;;19.00;98.70;;;;;;4968466;28;20059;-75
2021/12/28 11:45:01;;;;;;;8.52;0.82;;;18.90;98.90;;;;;;4969474;28;20031;-75
2021/12/28 11:47:28;;;;;;;;;;;18.90;98.70;;;;;;4969095;28;20137;-75
2021/12/28 11:49:58;;;;;;;5.68;1.13;;;18.90;98.40;;;;;;4969399;28;20281;-75
2021/12/28 11:52:26;;;;;;;3.67;1.40;;;18.80;98.40;;;;;;4970023;28;20031;-75
2021/12/28 11:54:56;;;;;;;6.93;0.85;;;18.80;98.30;;;;;;4969628;28;20030;-76
2021/12/28 11:57:32;;;;;;;7.82;1.23;;;18.80;98.10;;;;;;4969007;28;20166;-75
2021/12/28 12:00:11;;;;;;;6.53;0.80;;;18.80;98.10;;;;;;4967674;28;20037;-75
2021/12/28 12:02:45;;;;;;;6.97;1.05;;;18.90;97.90;;;;;;4968807;28;20562;-76
2021/12/28 12:05:20;;;;;;;3.00;0.80;;;18.80;98.30;;;;;;4969276;28;20113;-76
2021/12/28 12:08:09;;;;;;;5.50;1.45;;;18.70;98.20;;;;;;4968713;28;20045;-75
2021/12/28 12:11:00;;;;;;;3.60;1.23;;;18.70;98.40;;;;;;4969452;28;20511;-76
2021/12/28 12:13:31;;;;;;;5.07;1.10;;;18.70;98.10;;;;;;4969323;28;20062;-75
2021/12/28 12:16:01;;;;;;;12.13;1.13;;;18.60;98.20;;;;;;4968830;28;20041;-76
2021/12/28 12:18:32;;;;;;;6.05;0.82;;;18.60;98.00;;;;;;4969571;28;20069;-75
2021/12/28 12:21:06;;;;;;;8.45;1.75;;;18.60;98.10;;;;;;4968962;28;20093;-74
2021/12/28 12:23:46;;;;;;;9.95;0.80;;;18.60;98.10;;;;;;4969508;28;20415;-76
2021/12/28 12:26:24;;;;;;;10.25;1.70;;;18.60;98.50;;;;;;4969962;28;20101;-74
2021/12/28 12:28:56;;;;;;;9.93;1.85;;;18.70;98.60;;;;;;4969085;28;21409;-76
2021/12/28 12:31:31;;;;;;;5.55;0.98;;;18.70;98.20;;;;;;4969947;28;20439;-75
2021/12/28 12:34:01;;;;;;;3.58;0.90;;;18.80;98.60;;;;;;4969304;28;20038;-75
2021/12/28 12:36:32;;;;;;;7.57;2.40;;;18.80;98.70;;;;;;4966649;28;20038;-74
2021/12/28 12:39:06;;;;;;;8.38;0.90;;;18.90;98.80;;;;;;4969502;28;20030;-74
2021/12/28 12:41:41;;;;;;;5.72;1.42;;;18.90;98.50;;;;;;4969047;28;20037;-75
2021/12/28 12:44:11;;;;;;;4.75;0.80;;;19.00;98.50;;;;;;4968015;28;20082;-76
2021/12/28 12:46:43;;;;;;;5.05;0.82;;;19.00;98.00;;;;;;4968643;28;20045;-75
2021/12/28 12:49:22;;;;;;;9.63;2.70;;;19.00;97.90;;;;;;4968687;28;20078;-74
2021/12/28 12:51:55;;;;;;;3.90;0.73;;;19.10;97.70;;;;;;4968981;28;20312;-74
2021/12/28 12:54:42;;;;;;;4.68;1.08;;;19.00;97.60;;;;;;4968803;28;20463;-74
2021/12/28 12:57:13;;;;;;;2.58;0.77;;;18.90;97.70;;;;;;4968020;28;20022;-74
2021/12/28 13:00:08;;;;;;;8.63;1.20;;;18.90;98.40;;;;;;4968291;28;20034;-76
2021/12/28 13:02:37;;;;;;;6.53;1.17;;;18.80;98.40;;;;;;4962690;28;20054;-76
2021/12/28 13:05:22;;;;;;;7.75;1.95;;;18.70;98.40;;;;;;4968105;28;20562;-75
2021/12/28 13:07:51;;;;;;;11.88;1.75;;;18.50;98.80;;;;;;4968061;28;20062;-76